Time;durP1;ratioP1;P1;durP2;ratioP2;P2;SDS_P1;SDS_P2;PMS_P1;PMS_P2;Temp;Humidity;BMP_temperature;BMP_pressure;BME280_temperature;BME280_humidity;BME280_pressure;Samples;Min_cycle;Max_cycle;Signal;HPM_P1;HPM_P2
2022/07/02 00:01:49;;;;;;;;;3.75;2.75;;;;;17.01;54.08;101891.56;6304856;22;59302;-88
2022/07/02 00:04:15;;;;;;;;;5.75;3.50;;;;;16.94;54.70;101887.47;6318338;22;47092;-87
2022/07/02 00:06:42;;;;;;;;;2.00;2.00;;;;;16.88;55.14;101885.91;6308535;22;45724;-88
2022/07/02 00:09:08;;;;;;;;;4.25;3.00;;;;;16.88;55.09;101890.31;6309258;22;45299;-88
2022/07/02 00:11:34;;;;;;;;;2.50;2.50;;;;;16.73;54.95;101873.31;6282798;22;45536;-87
2022/07/02 00:14:00;;;;;;;;;3.00;3.00;;;;;16.73;53.88;101883.81;6309394;22;45261;-87
2022/07/02 00:16:26;;;;;;;;;3.00;3.00;;;;;16.74;53.46;101872.41;6282766;22;45179;-87
2022/07/02 00:18:51;;;;;;;;;3.00;3.00;;;;;16.69;55.40;101875.19;6308967;22;45213;-87
2022/07/02 00:21:18;;;;;;;;;5.25;4.00;;;;;16.73;55.21;101889.06;6336312;22;45277;-88
2022/07/02 00:23:44;;;;;;;;;5.00;3.00;;;;;16.60;55.40;101879.03;6282422;22;48278;-87
2022/07/02 00:26:16;;;;;;;;;3.00;3.00;;;;;16.60;54.91;101891.28;6334766;22;45979;-88
2022/07/02 00:28:46;;;;;;;;;3.75;3.75;;;;;16.40;55.59;101879.72;6282879;22;45255;-87
2022/07/02 00:31:11;;;;;;;;;5.50;4.00;;;;;16.37;55.69;101885.09;6308795;22;45329;-87
2022/07/02 00:33:37;;;;;;;;;5.75;3.00;;;;;16.35;56.19;101891.31;6282568;22;48262;-88
2022/07/02 00:36:03;;;;;;;;;3.75;3.75;;;;;16.35;56.22;101907.06;6308203;22;45809;-87
2022/07/02 00:38:29;;;;;;;;;3.00;3.00;;;;;16.22;56.16;101880.38;6336648;22;45226;-87
2022/07/02 00:40:55;;;;;;;;;4.25;4.25;;;;;16.25;55.64;101885.50;6282658;22;45226;-87
2022/07/02 00:43:20;;;;;;;;;6.50;3.00;;;;;16.24;55.33;101881.16;6308501;22;45266;-87
2022/07/02 00:45:46;;;;;;;;;5.50;4.25;;;;;16.18;56.12;101865.63;6308692;22;45254;-87
2022/07/02 00:48:13;;;;;;;;;5.00;4.00;;;;;16.21;56.13;101876.00;6308883;22;45270;-88
2022/07/02 00:50:38;;;;;;;;;4.75;4.25;;;;;16.16;56.17;101857.78;6308834;22;45342;-87
2022/07/02 00:53:04;;;;;;;;;6.00;4.00;;;;;16.16;55.56;101863.06;6307798;22;65071;-87
2022/07/02 00:55:29;;;;;;;;;4.75;4.00;;;;;16.15;56.63;101863.09;6308593;22;45289;-88
2022/07/02 00:57:55;;;;;;;;;5.50;3.00;;;;;16.19;56.32;101859.44;6308665;22;45698;-88
2022/07/02 01:00:20;;;;;;;;;6.00;4.75;;;;;16.18;57.08;101860.38;6308798;22;45352;-87
2022/07/02 01:02:47;;;;;;;;;5.00;4.00;;;;;16.12;56.88;101857.94;6307659;22;63470;-87
2022/07/02 01:05:17;;;;;;;;;4.50;2.00;;;;;16.17;56.84;101864.75;6308434;22;45354;-87
2022/07/02 01:07:46;;;;;;;;;2.75;2.75;;;;;16.08;56.84;101845.81;6308904;22;45300;-87
2022/07/02 01:10:18;;;;;;;;;2.00;2.00;;;;;16.19;56.74;101872.59;6335752;22;45453;-87
2022/07/02 01:12:48;;;;;;;;;3.00;3.00;;;;;16.11;56.64;101853.63;6334579;22;48082;-88
2022/07/02 01:15:14;;;;;;;;;2.50;2.25;;;;;16.16;57.98;101857.78;6307840;22;46248;-87
2022/07/02 01:17:40;;;;;;;;;5.50;2.75;;;;;16.13;57.90;101859.66;6308969;22;45217;-87
2022/07/02 01:20:06;;;;;;;;;3.25;2.25;;;;;16.17;57.78;101871.78;6334251;22;45456;-87
2022/07/02 01:22:33;;;;;;;;;2.25;2.00;;;;;16.14;57.98;101864.00;6334372;22;47608;-87
2022/07/02 01:24:58;;;;;;;;;3.25;2.75;;;;;16.08;57.70;101858.97;6308423;22;45223;-87
2022/07/02 01:27:24;;;;;;;;;3.00;3.00;;;;;16.14;57.52;101875.38;6308437;22;45222;-87
2022/07/02 01:29:50;;;;;;;;;3.50;2.00;;;;;16.19;58.13;101883.94;6308953;22;45411;-87
2022/07/02 01:32:15;;;;;;;;;1.75;1.75;;;;;16.11;57.86;101864.97;6335722;22;46061;-87
2022/07/02 01:34:45;;;;;;;;;2.00;2.00;;;;;16.21;58.72;101879.53;6308065;22;45311;-87
2022/07/02 01:37:12;;;;;;;;;3.00;2.00;;;;;16.13;58.50;101867.56;6282255;22;45211;-87
2022/07/02 01:39:38;;;;;;;;;3.00;2.50;;;;;16.24;57.74;101889.06;6334554;22;45269;-87
2022/07/02 01:42:05;;;;;;;;;2.25;1.25;;;;;16.16;57.65;101872.72;6308172;22;45290;-86
2022/07/02 01:44:30;;;;;;;;;2.00;2.00;;;;;16.20;57.85;101866.44;6335832;22;45658;-87
2022/07/02 01:46:55;;;;;;;;;5.00;3.00;;;;;16.16;58.05;101870.09;6308274;22;45652;-87
2022/07/02 01:49:21;;;;;;;;;4.00;2.00;;;;;16.12;58.74;101865.81;6282201;22;45453;-87
2022/07/02 01:51:46;;;;;;;;;3.00;3.00;;;;;16.17;58.21;101880.50;6308488;22;49040;-88
2022/07/02 01:54:13;;;;;;;;;3.25;2.00;;;;;16.18;58.79;101890.13;6308271;22;45638;-87
2022/07/02 01:56:39;;;;;;;;;3.50;2.00;;;;;16.06;59.11;101853.75;6308593;22;45337;-88
2022/07/02 01:59:05;;;;;;;;;4.00;2.00;;;;;16.11;58.75;101872.84;6282131;22;49359;-87
2022/07/02 02:01:30;;;;;;;;;4.75;3.50;;;;;16.08;58.17;101872.94;6308108;22;46380;-87
2022/07/02 02:03:56;;;;;;;;;3.00;2.00;;;;;16.05;58.66;101867.81;6308812;22;45269;-88
2022/07/02 02:06:21;;;;;;;;;4.25;3.00;;;;;16.05;58.96;101863.41;6307849;22;50220;-87
2022/07/02 02:08:46;;;;;;;;;5.00;3.25;;;;;15.94;59.13;101844.53;6307937;22;46855;-87
2022/07/02 02:11:12;;;;;;;;;3.00;3.00;;;;;16.04;58.71;101871.34;6307319;22;60242;-87
2022/07/02 02:13:37;;;;;;;;;3.75;3.00;;;;;16.08;58.62;101870.31;6281970;22;45794;-87
2022/07/02 02:16:03;;;;;;;;;3.00;3.00;;;;;16.05;58.75;101871.28;6307920;22;45250;-87
2022/07/02 02:18:28;;;;;;;;;4.00;2.00;;;;;15.98;59.59;101854.03;6335779;22;45301;-87
2022/07/02 02:20:53;;;;;;;;;6.50;5.00;;;;;16.09;58.90;101872.03;6281208;22;62839;-87
2022/07/02 02:23:19;;;;;;;;;3.75;3.50;;;;;16.11;58.81;101872.84;6282804;22;54396;-87
2022/07/02 02:25:44;;;;;;;;;3.00;3.00;;;;;16.05;59.22;101860.78;6309352;22;45491;-87
2022/07/02 02:28:10;;;;;;;;;4.25;3.00;;;;;16.08;59.37;101867.69;6309866;22;45377;-87
2022/07/02 02:30:35;;;;;;;;;6.75;3.25;;;;;16.03;58.85;101862.59;6309120;22;45474;-87
2022/07/02 02:33:00;;;;;;;;;3.00;2.50;;;;;16.03;60.11;101862.59;6308793;22;52571;-87
2022/07/02 02:35:26;;;;;;;;;5.00;4.00;;;;;15.98;60.66;101864.53;6315383;22;45258;-87
2022/07/02 02:37:51;;;;;;;;;3.50;3.00;;;;;15.93;59.81;101858.56;6324936;22;45443;-87
2022/07/02 02:40:16;;;;;;;;;4.25;3.00;;;;;15.81;59.53;101848.50;6315862;22;46094;-87
2022/07/02 02:42:42;;;;;;;;;4.50;3.00;;;;;15.72;59.83;101836.47;6309429;22;45326;-86
2022/07/02 02:45:08;;;;;;;;;6.50;2.50;;;;;15.77;59.73;101845.09;6309360;22;45275;-87
2022/07/02 02:47:33;;;;;;;;;4.00;4.00;;;;;15.80;59.59;101852.84;6309279;22;45318;-87
2022/07/02 02:49:58;;;;;;;;;3.00;3.00;;;;;15.73;60.29;101843.47;6309082;22;52885;-87
2022/07/02 02:52:24;;;;;;;;;3.25;3.00;;;;;15.68;59.75;101834.88;6308655;22;56090;-87
2022/07/02 02:54:49;;;;;;;;;4.25;4.25;;;;;15.73;60.20;101843.47;6308969;22;54112;-87
2022/07/02 02:57:14;;;;;;;;;3.75;3.75;;;;;15.75;59.90;101848.66;6309528;22;45340;-87
2022/07/02 02:59:40;;;;;;;;;2.25;2.25;;;;;15.65;60.33;101829.72;6282396;22;47304;-86
2022/07/02 03:02:06;;;;;;;;;3.00;2.75;;;;;15.65;60.14;101841.06;6309019;22;45344;-87
2022/07/02 03:04:31;;;;;;;;;3.00;3.00;;;;;15.68;61.08;101848.84;6335377;22;45266;-87
2022/07/02 03:06:57;;;;;;;;;3.00;2.00;;;;;15.66;60.18;101845.41;6309474;22;48042;-88
2022/07/02 03:09:22;;;;;;;;;6.50;3.75;;;;;15.64;60.58;101843.75;6309803;22;46049;-87
2022/07/02 03:11:47;;;;;;;;;2.00;2.00;;;;;15.65;59.95;101845.47;6282836;22;45286;-86
2022/07/02 03:14:13;;;;;;;;;3.50;3.00;;;;;15.53;60.72;101830.13;6308900;22;45427;-87
2022/07/02 03:16:38;;;;;;;;;4.25;4.25;;;;;15.55;60.94;101837.03;6309041;22;45378;-86
2022/07/02 03:19:04;;;;;;;;;6.00;4.00;;;;;15.67;60.50;101868.16;6336336;22;49215;-85
2022/07/02 03:21:29;;;;;;;;;6.00;4.00;;;;;15.58;60.42;101849.19;6308809;22;45677;-87
2022/07/02 03:23:54;;;;;;;;;4.00;4.00;;;;;15.61;60.01;101851.72;6309007;22;47902;-87
2022/07/02 03:26:20;;;;;;;;;4.00;4.00;;;;;15.63;60.66;101856.00;6309230;22;45416;-88
2022/07/02 03:28:45;;;;;;;;;2.75;2.75;;;;;15.67;60.14;101856.75;6308443;22;45456;-86
2022/07/02 03:31:10;;;;;;;;;4.75;3.50;;;;;15.68;60.86;101858.50;6282216;22;55223;-87
2022/07/02 03:33:36;;;;;;;;;6.50;4.00;;;;;15.57;61.00;101844.88;6282441;22;49057;-87
2022/07/02 03:36:01;;;;;;;;;2.00;2.00;;;;;15.53;60.25;101840.63;6309109;22;45443;-88
2022/07/02 03:38:27;;;;;;;;;3.00;3.00;;;;;15.58;60.80;101857.06;6308011;22;62909;-88
2022/07/02 03:40:53;;;;;;;;;4.00;2.50;;;;;15.63;60.57;101857.78;6336679;22;45355;-88
2022/07/02 03:43:18;;;;;;;;;3.00;3.00;;;;;15.50;60.63;101836.31;6308675;22;45369;-87
2022/07/02 03:45:43;;;;;;;;;4.25;4.00;;;;;15.48;61.32;101841.59;6308758;22;52776;-87
2022/07/02 03:48:09;;;;;;;;;5.75;4.50;;;;;15.51;60.87;101852.91;6282332;22;59547;-87
2022/07/02 03:50:38;;;;;;;;;3.00;3.00;;;;;15.55;61.18;101865.91;6308769;22;45373;-86
2022/07/02 03:53:04;;;;;;;;;5.00;4.00;;;;;15.54;60.98;101860.69;6309853;22;45260;-87
2022/07/02 03:55:29;;;;;;;;;3.25;3.00;;;;;15.54;60.55;101865.94;6335273;22;45239;-87
2022/07/02 03:57:54;;;;;;;;;8.50;4.75;;;;;15.55;60.76;101854.56;6335792;22;52409;-87
2022/07/02 04:00:20;;;;;;;;;5.25;4.00;;;;;15.57;60.75;101850.97;6307640;22;67844;-87
2022/07/02 04:02:45;;;;;;;;;6.50;3.00;;;;;15.61;60.39;101855.19;6283019;22;45330;-86
2022/07/02 04:05:10;;;;;;;;;7.25;4.50;;;;;15.55;60.69;101849.31;6308786;22;45304;-87
2022/07/02 04:07:36;;;;;;;;;5.00;4.00;;;;;15.56;60.82;101843.13;6308506;22;49214;-87
2022/07/02 04:10:02;;;;;;;;;3.00;3.00;;;;;15.55;61.17;101851.94;6308613;22;45352;-87
2022/07/02 04:12:27;;;;;;;;;4.50;3.00;;;;;15.50;60.65;101844.19;6308450;22;45335;-86
2022/07/02 04:14:53;;;;;;;;;4.00;3.75;;;;;15.59;61.34;101854.38;6309002;22;45402;-87
2022/07/02 04:17:18;;;;;;;;;7.25;5.75;;;;;15.62;61.08;101864.81;6308647;22;45475;-86
2022/07/02 04:19:43;;;;;;;;;9.00;4.25;;;;;15.61;61.26;101870.09;6308564;22;47286;-87
2022/07/02 04:22:09;;;;;;;;;5.75;5.75;;;;;15.60;61.04;101871.88;6308833;22;45269;-86
2022/07/02 04:24:34;;;;;;;;;4.00;4.00;;;;;15.53;60.90;101846.72;6308514;22;45495;-86
2022/07/02 04:26:59;;;;;;;;;4.00;4.00;;;;;15.58;61.33;101854.44;6308044;22;49652;-87
2022/07/02 04:29:25;;;;;;;;;5.00;4.00;;;;;15.56;61.28;101843.97;6309078;22;45245;-87
2022/07/02 04:31:50;;;;;;;;;5.75;3.00;;;;;15.57;61.57;101855.38;6309348;22;45187;-87
2022/07/02 04:34:15;;;;;;;;;5.75;5.25;;;;;15.54;62.11;101858.91;6308199;22;54841;-86
2022/07/02 04:36:41;;;;;;;;;5.00;5.00;;;;;15.51;61.92;101858.16;6334230;22;56903;-87
2022/07/02 04:39:06;;;;;;;;;6.50;3.25;;;;;15.58;61.78;101870.19;6308443;22;50045;-86
2022/07/02 04:41:32;;;;;;;;;3.50;3.50;;;;;15.48;61.77;101862.59;6308726;22;45261;-86
2022/07/02 04:43:58;;;;;;;;;3.00;3.00;;;;;15.54;61.52;101869.41;6308591;22;45171;-86
2022/07/02 04:46:23;;;;;;;;;9.75;5.50;;;;;15.58;61.97;101868.44;6308362;22;47224;-86
2022/07/02 04:48:49;;;;;;;;;4.75;4.75;;;;;15.57;62.35;101861.47;6308552;22;45340;-85
2022/07/02 04:51:15;;;;;;;;;10.00;4.25;;;;;15.62;62.38;101874.41;6308244;22;45317;-86
2022/07/02 04:53:40;;;;;;;;;7.25;5.50;;;;;15.55;62.27;101854.56;6308754;22;47606;-85
2022/07/02 04:56:05;;;;;;;;;5.00;5.00;;;;;15.55;62.67;101860.66;6307995;22;45952;-86
2022/07/02 04:58:31;;;;;;;;;6.25;4.00;;;;;15.49;62.24;101851.22;6336125;22;46830;-88
2022/07/02 05:00:56;;;;;;;;;6.00;5.00;;;;;15.54;62.28;101861.53;6308999;22;45344;-87
2022/07/02 05:03:21;;;;;;;;;7.75;5.00;;;;;15.66;61.52;101870.81;6308656;22;47715;-86
2022/07/02 05:05:47;;;;;;;;;5.00;4.00;;;;;15.62;61.72;101851.69;6308325;22;57820;-86
2022/07/02 05:08:12;;;;;;;;;5.00;5.00;;;;;15.66;61.91;101853.28;6281912;22;53881;-86
2022/07/02 05:10:37;;;;;;;;;5.00;5.00;;;;;15.73;61.58;101850.47;6344407;22;45231;-86
2022/07/02 05:13:04;;;;;;;;;6.25;4.75;;;;;15.81;61.30;101848.50;6320363;22;45343;-87
2022/07/02 05:15:30;;;;;;;;;3.25;2.25;;;;;15.88;61.45;101850.00;6309551;22;46012;-86
2022/07/02 05:17:56;;;;;;;;;6.25;4.00;;;;;15.94;61.20;101862.91;6336395;22;45320;-86
2022/07/02 05:20:21;;;;;;;;;6.25;5.00;;;;;15.95;61.95;101853.25;6308342;22;48908;-87
2022/07/02 05:22:46;;;;;;;;;4.75;3.50;;;;;15.88;62.56;101847.38;6281737;22;55444;-86
2022/07/02 05:25:12;;;;;;;;;4.00;4.00;;;;;15.94;62.27;101860.28;6307536;22;49125;-87
2022/07/02 05:27:37;;;;;;;;;6.00;4.75;;;;;15.96;61.78;101857.63;6308280;22;45220;-87
2022/07/02 05:30:03;;;;;;;;;5.00;4.25;;;;;15.99;61.67;101865.38;6282132;22;45297;-87
2022/07/02 05:32:28;;;;;;;;;6.00;6.00;;;;;16.01;62.06;101858.28;6308563;22;45578;-86
2022/07/02 05:34:54;;;;;;;;;5.50;5.00;;;;;16.08;61.89;101865.06;6308315;22;45291;-86
2022/07/02 05:37:19;;;;;;;;;10.25;5.25;;;;;16.04;62.47;101856.44;6308333;22;45358;-86
2022/07/02 05:39:44;;;;;;;;;6.50;4.50;;;;;16.13;62.68;101868.41;6307796;22;45456;-87
2022/07/02 05:42:10;;;;;;;;;13.00;9.00;;;;;16.02;62.87;101852.16;6308094;22;45298;-87
2022/07/02 05:44:35;;;;;;;;;6.75;6.75;;;;;16.05;62.81;101854.69;6308316;22;45347;-87
2022/07/02 05:47:01;;;;;;;;;5.00;5.00;;;;;16.04;62.24;101850.31;6308120;22;45317;-87
2022/07/02 05:49:26;;;;;;;;;6.25;6.25;;;;;16.08;61.95;101840.56;6307829;22;48813;-87
2022/07/02 05:51:51;;;;;;;;;7.00;5.00;;;;;16.19;62.05;101848.94;6308211;22;45558;-87
2022/07/02 05:54:17;;;;;;;;;6.25;6.00;;;;;16.19;62.42;101849.78;6307383;22;47979;-87
2022/07/02 05:56:42;;;;;;;;;8.25;5.00;;;;;16.31;62.56;101864.28;6307805;22;45437;-87
2022/07/02 05:59:07;;;;;;;;;10.00;7.25;;;;;16.31;62.30;101853.78;6335994;22;45262;-86
2022/07/02 06:01:33;;;;;;;;;10.00;7.00;;;;;16.30;62.40;101856.44;6282027;22;45405;-87
2022/07/02 06:03:58;;;;;;;;;8.75;7.75;;;;;16.32;62.71;101863.34;6308039;22;46895;-87
2022/07/02 06:09:07;;;;;;;;;9.75;9.00;;;;;16.29;61.94;101858.22;6336065;22;45410;-87
2022/07/02 06:11:33;;;;;;;;;7.50;6.00;;;;;16.30;62.18;101845.94;6307283;22;51305;-86
2022/07/02 06:13:58;;;;;;;;;11.50;10.50;;;;;16.32;61.54;101854.63;6307237;22;58007;-86
2022/07/02 06:16:24;;;;;;;;;10.00;7.50;;;;;16.27;61.17;101841.66;6335244;22;64599;-87
2022/07/02 06:18:49;;;;;;;;;10.00;8.50;;;;;16.41;61.66;101857.78;6335696;22;45309;-87
2022/07/02 06:21:14;;;;;;;;;7.50;7.50;;;;;16.47;61.07;101856.69;6307435;22;59999;-87
2022/07/02 06:23:40;;;;;;;;;11.50;9.50;;;;;16.56;61.34;101866.03;6307660;22;45278;-87
2022/07/02 06:26:05;;;;;;;;;11.25;8.50;;;;;16.60;62.13;101859.75;6307930;22;47478;-87
2022/07/02 06:28:31;;;;;;;;;9.00;9.00;;;;;16.59;61.24;101852.78;6334365;22;45363;-87
2022/07/02 06:30:56;;;;;;;;;12.75;10.50;;;;;16.70;62.15;101853.25;6307636;22;45379;-87
2022/07/02 06:33:21;;;;;;;;;8.75;8.00;;;;;16.66;60.61;101843.78;6307244;22;55310;-87
2022/07/02 06:35:47;;;;;;;;;12.00;8.25;;;;;16.79;59.68;101849.41;6307578;22;45240;-87
2022/07/02 06:38:12;;;;;;;;;11.75;10.00;;;;;16.89;60.70;101847.34;6281402;22;45255;-87
2022/07/02 06:40:38;;;;;;;;;6.25;6.25;;;;;17.01;58.91;101853.00;6281872;22;45507;-86
2022/07/02 06:43:03;;;;;;;;;8.50;7.00;;;;;16.98;59.73;101834.69;6281566;22;48235;-86
2022/07/02 06:45:29;;;;;;;;;7.00;4.25;;;;;17.09;56.88;101849.22;6307470;22;45270;-87
2022/07/02 06:47:54;;;;;;;;;7.25;6.75;;;;;17.19;57.79;101843.50;6308244;22;45356;-87
2022/07/02 06:50:19;;;;;;;;;6.75;6.50;;;;;17.37;57.50;101838.47;6280965;22;54731;-86
2022/07/02 06:52:45;;;;;;;;;10.00;6.50;;;;;17.47;57.74;101831.91;6307043;22;56225;-87
2022/07/02 06:55:12;;;;;;;;;12.50;8.00;;;;;17.66;57.01;101845.16;6307356;22;45364;-87
2022/07/02 06:57:38;;;;;;;;;9.75;8.75;;;;;17.82;57.28;101857.72;6335327;22;45340;-87
2022/07/02 07:00:05;;;;;;;;;8.25;6.00;;;;;17.83;55.22;101851.50;6335422;22;45444;-86
2022/07/02 07:02:31;;;;;;;;;6.50;5.50;;;;;17.86;55.78;101848.78;6335020;22;45929;-85
2022/07/02 07:04:56;;;;;;;;;4.50;4.50;;;;;17.96;53.27;101843.06;6307195;22;45277;-87
2022/07/02 07:07:27;;;;;;;;;3.50;3.50;;;;;18.16;53.62;101854.53;6307314;22;45349;-87
2022/07/02 07:09:53;;;;;;;;;3.00;3.00;;;;;18.19;51.90;101841.22;6310055;22;45419;-89
2022/07/02 07:12:18;;;;;;;;;4.50;4.00;;;;;18.38;51.48;101854.44;6335410;22;48004;-88
2022/07/02 07:14:44;;;;;;;;;3.00;3.00;;;;;18.44;51.32;101853.31;6308410;22;61257;-90
2022/07/02 07:17:09;;;;;;;;;6.00;4.00;;;;;18.43;50.75;101841.94;6309393;22;45305;-88
2022/07/02 07:19:37;;;;;;;;;3.00;3.00;;;;;18.56;51.43;101836.97;6282894;22;45991;-88
2022/07/02 07:22:15;;;;;;;;;;;;;;;;;;;;;
2022/07/02 07:24:50;;;;;;;;;2.50;2.50;;;;;18.81;49.50;101834.09;6329913;22;74259;-91
2022/07/02 07:27:15;;;;;;;;;3.00;2.25;;;;;18.84;46.98;101830.47;6336810;22;45186;-86
2022/07/02 07:29:45;;;;;;;;;2.00;2.00;;;;;18.97;46.19;101833.41;6308696;22;45318;-88
2022/07/02 07:32:10;;;;;;;;;5.00;2.00;;;;;19.05;45.80;101831.22;6308892;22;45490;-86
2022/07/02 07:34:36;;;;;;;;;1.00;1.00;;;;;19.14;45.85;101823.72;6308753;22;46513;-85
2022/07/02 07:37:01;;;;;;;;;1.50;1.25;;;;;19.29;46.73;101830.06;6308551;22;45294;-86
2022/07/02 07:39:27;;;;;;;;;1.50;1.00;;;;;19.43;46.71;101842.59;6282612;22;45510;-87
2022/07/02 07:41:52;;;;;;;;;4.50;1.00;;;;;19.51;45.81;101834.31;6336192;22;47073;-85
2022/07/02 07:44:17;;;;;;;;;1.75;1.00;;;;;19.54;45.53;101826.25;6309640;22;45238;-86
2022/07/02 07:46:43;;;;;;;;;2.75;2.00;;;;;19.70;44.76;101827.16;6341470;22;46613;-86
2022/07/02 07:49:10;;;;;;;;;1.00;1.00;;;;;19.74;44.65;101819.97;6339361;22;45282;-87
2022/07/02 07:51:37;;;;;;;;;0.25;0.00;;;;;19.81;44.94;101820.53;6309487;22;45361;-87
2022/07/02 07:54:03;;;;;;;;;1.25;1.00;;;;;19.91;42.37;101824.44;6336344;22;45233;-87
2022/07/02 07:56:28;;;;;;;;;1.75;1.00;;;;;19.97;42.96;101821.47;6337185;22;45261;-87
2022/07/02 07:58:54;;;;;;;;;1.00;1.00;;;;;19.96;41.85;101811.81;6337141;22;45316;-88
2022/07/02 08:01:19;;;;;;;;;0.00;0.00;;;;;20.08;42.40;101815.63;6282680;22;46870;-87
2022/07/02 08:03:47;;;;;;;;;1.00;1.00;;;;;20.21;42.03;101829.91;6282415;22;45732;-88
2022/07/02 08:06:12;;;;;;;;;0.00;0.00;;;;;20.28;42.12;101822.50;6308567;22;45373;-85
2022/07/02 08:08:37;;;;;;;;;1.00;0.25;;;;;20.35;41.78;101817.75;6337356;22;45287;-87
2022/07/02 08:11:03;;;;;;;;;1.00;1.00;;;;;20.42;41.23;101813.84;6335795;22;46081;-87
2022/07/02 08:13:29;;;;;;;;;2.00;1.25;;;;;20.49;41.04;101810.78;6335654;22;45344;-87
2022/07/02 08:15:54;;;;;;;;;1.00;0.00;;;;;20.55;41.21;101803.47;6308305;22;45304;-86
2022/07/02 08:18:20;;;;;;;;;0.00;0.00;;;;;20.68;40.45;101820.41;6308284;22;45391;-87
2022/07/02 08:20:45;;;;;;;;;1.50;0.00;;;;;20.73;41.72;101809.56;6307954;22;47021;-87
2022/07/02 08:23:10;;;;;;;;;0.25;0.25;;;;;20.79;41.12;101812.72;6337235;22;45337;-87
2022/07/02 08:25:36;;;;;;;;;0.75;0.75;;;;;20.81;39.56;101817.94;6308484;22;45281;-87
2022/07/02 08:28:01;;;;;;;;;1.25;1.00;;;;;20.82;40.65;101817.88;6308774;22;45325;-88
2022/07/02 08:30:27;;;;;;;;;2.00;2.00;;;;;20.84;41.65;101801.91;6335679;22;45439;-88
2022/07/02 08:32:52;;;;;;;;;1.00;1.00;;;;;20.93;41.15;101812.00;6308021;22;45277;-87
2022/07/02 08:35:18;;;;;;;;;1.00;1.00;;;;;20.98;39.09;101804.63;6309493;22;45367;-87
2022/07/02 08:37:44;;;;;;;;;0.00;0.00;;;;;20.99;39.31;101811.63;6282731;22;45268;-87
2022/07/02 08:40:12;;;;;;;;;1.00;0.25;;;;;21.08;39.10;101811.13;6308350;22;45394;-87
2022/07/02 08:42:40;;;;;;;;;0.50;0.50;;;;;21.08;38.75;101811.13;6309531;22;45224;-89
2022/07/02 08:45:06;;;;;;;;;0.25;0.25;;;;;21.14;38.68;101807.28;6337066;22;45283;-89
2022/07/02 08:47:32;;;;;;;;;0.00;0.00;;;;;21.17;39.36;101811.53;6282855;22;45412;-89
2022/07/02 08:49:58;;;;;;;;;3.00;1.00;;;;;21.23;39.48;101811.22;6282380;22;47984;-88
2022/07/02 08:52:25;;;;;;;;;0.00;0.00;;;;;21.29;39.20;101810.00;6308326;22;45624;-88
2022/07/02 08:54:51;;;;;;;;;0.00;0.00;;;;;21.33;38.04;101817.66;6309415;22;45227;-89
2022/07/02 08:57:17;;;;;;;;;0.25;0.00;;;;;21.25;37.70;101788.97;6309252;22;45376;-89
2022/07/02 08:59:43;;;;;;;;;0.25;0.25;;;;;21.37;36.81;101803.31;6282793;22;47202;-88
2022/07/02 09:02:13;;;;;;;;;0.00;0.00;;;;;21.40;37.04;101804.94;6308859;22;45659;-89
2022/07/02 09:04:42;;;;;;;;;1.00;0.00;;;;;21.51;36.30;101805.19;6309420;22;45376;-87
2022/07/02 09:07:11;;;;;;;;;0.25;0.25;;;;;21.47;36.97;101785.13;6309153;22;45427;-89
2022/07/02 09:09:38;;;;;;;;;0.00;0.00;;;;;21.56;38.41;101786.38;6309477;22;45383;-90
2022/07/02 09:12:03;;;;;;;;;0.00;0.00;;;;;21.70;38.75;101789.06;6308749;22;45318;-89
2022/07/02 09:14:31;;;;;;;;;0.50;0.50;;;;;21.76;38.32;101786.03;6308347;22;45448;-89
2022/07/02 09:16:57;;;;;;;;;0.00;0.00;;;;;21.77;37.08;101777.16;6308241;22;45289;-86
2022/07/02 09:19:22;;;;;;;;;0.00;0.00;;;;;21.89;36.47;101783.50;6308998;22;47129;-92
2022/07/02 09:21:49;;;;;;;;;0.00;0.00;;;;;21.98;37.33;101793.56;6284368;22;45291;-94
2022/07/02 09:24:35;;;;;;;;;2.75;0.00;;;;;22.02;36.79;101794.22;6310141;22;45297;-94
2022/07/02 09:27:05;;;;;;;;;1.00;1.00;;;;;22.12;36.25;101800.69;6283962;22;45508;-89
2022/07/02 09:29:45;;;;;;;;;1.25;0.00;;;;;22.04;36.70;101779.94;6335890;22;46294;-85
2022/07/02 09:32:11;;;;;;;;;0.50;0.50;;;;;22.22;37.22;101800.97;6306671;22;45361;-87
2022/07/02 09:34:50;;;;;;;;;0.00;0.00;;;;;22.24;36.78;101794.63;6308207;22;45341;-82
2022/07/02 09:37:21;;;;;;;;;2.00;0.00;;;;;22.21;36.83;101776.28;6308712;22;45266;-83
2022/07/02 09:39:48;;;;;;;;;1.00;0.00;;;;;22.39;37.73;101790.19;6307820;22;46660;-83
2022/07/02 09:42:33;;;;;;;;;0.00;0.00;;;;;22.51;38.35;101785.94;6335649;22;45602;-84
2022/07/02 09:45:01;;;;;;;;;0.75;0.00;;;;;22.57;36.95;101784.72;6336091;22;45319;-85
2022/07/02 09:47:37;;;;;;;;;0.00;0.00;;;;;22.64;37.11;101795.78;6307473;22;45440;-82
2022/07/02 09:50:05;;;;;;;;;1.25;1.00;;;;;22.66;34.94;101778.81;6308324;22;45373;-83
2022/07/02 09:52:31;;;;;;;;;2.00;0.00;;;;;22.74;35.58;101780.97;6307950;22;45406;-85
2022/07/02 09:54:56;;;;;;;;;0.00;0.00;;;;;22.80;36.12;101776.13;6281899;22;45426;-85
2022/07/02 09:57:21;;;;;;;;;0.00;0.00;;;;;22.85;35.18;101772.34;6336251;22;45309;-84
2022/07/02 09:59:47;;;;;;;;;0.00;0.00;;;;;22.85;34.08;101775.00;6335464;22;54190;-86
2022/07/02 10:02:23;;;;;;;;;0.00;0.00;;;;;22.82;34.98;101770.72;6307989;22;45824;-85
2022/07/02 10:04:53;;;;;;;;;0.50;0.50;;;;;22.86;34.67;101774.03;6308461;22;45281;-86
2022/07/02 10:07:21;;;;;;;;;0.00;0.00;;;;;22.91;34.23;101777.25;6335663;22;45499;-86
2022/07/02 10:09:48;;;;;;;;;0.00;0.00;;;;;22.88;34.01;101774.78;6308419;22;45431;-86
2022/07/02 10:12:14;;;;;;;;;1.25;0.00;;;;;22.90;34.27;101775.53;6308128;22;45594;-87
2022/07/02 10:14:40;;;;;;;;;0.00;0.00;;;;;22.91;34.42;101761.31;6308084;22;45284;-85
2022/07/02 10:17:08;;;;;;;;;0.00;0.00;;;;;22.94;35.22;101758.47;6305065;22;45370;-85
2022/07/02 10:19:34;;;;;;;;;0.00;0.00;;;;;22.92;33.64;101752.38;6307421;22;47337;-86
2022/07/02 10:22:00;;;;;;;;;0.00;0.00;;;;;22.91;33.97;101751.53;6337610;22;45181;-83
2022/07/02 10:24:26;;;;;;;;;0.00;0.00;;;;;22.89;34.25;101742.81;6308735;22;45378;-86
2022/07/02 10:26:54;;;;;;;;;0.00;0.00;;;;;22.90;34.06;101731.25;6335386;22;45371;-86
2022/07/02 10:29:19;;;;;;;;;0.00;0.00;;;;;23.04;34.94;101751.63;6306997;22;47299;-87
2022/07/02 10:31:50;;;;;;;;;0.00;0.00;;;;;23.12;35.27;101728.09;6307288;22;45287;-86
2022/07/02 10:34:25;;;;;;;;;0.00;0.00;;;;;23.29;33.93;101742.88;6307601;22;45329;-85
2022/07/02 10:36:51;;;;;;;;;0.75;0.25;;;;;23.31;33.53;101737.44;6307207;22;45515;-85
2022/07/02 10:39:16;;;;;;;;;0.00;0.00;;;;;23.31;33.47;101729.47;6307723;22;46483;-84
2022/07/02 10:41:42;;;;;;;;;0.00;0.00;;;;;23.43;33.90;101743.75;6307874;22;45321;-84
2022/07/02 10:44:09;;;;;;;;;0.50;0.00;;;;;23.45;33.06;101733.88;6307209;22;61524;-84
2022/07/02 10:46:35;;;;;;;;;0.75;0.75;;;;;23.43;32.35;101733.97;6336517;22;45289;-85
2022/07/02 10:49:00;;;;;;;;;0.00;0.00;;;;;23.52;33.39;101737.81;6336388;22;45264;-84
2022/07/02 10:51:28;;;;;;;;;0.00;0.00;;;;;23.54;34.86;101728.78;6308796;22;45199;-84
2022/07/02 10:53:58;;;;;;;;;1.00;1.00;;;;;23.70;33.56;101720.63;6308669;22;45269;-84
2022/07/02 10:56:23;;;;;;;;;1.25;0.00;;;;;23.86;32.74;101735.53;6334886;22;45397;-84
2022/07/02 10:58:49;;;;;;;;;0.00;0.00;;;;;23.93;32.33;101723.53;6308088;22;47104;-84
2022/07/02 11:01:17;;;;;;;;;0.75;0.00;;;;;24.08;32.12;101732.22;6336593;22;45346;-86
2022/07/02 11:03:56;;;;;;;;;0.00;0.00;;;;;24.17;35.01;101728.09;6308694;22;45302;-87
2022/07/02 11:06:25;;;;;;;;;0.25;0.25;;;;;24.36;34.76;101723.13;6307817;22;45462;-86
2022/07/02 11:09:09;;;;;;;;;0.25;0.25;;;;;24.55;33.31;101730.66;6336812;22;45635;-89
2022/07/02 11:11:40;;;;;;;;;0.00;0.00;;;;;24.71;31.30;101727.75;6338888;22;45325;-95
2022/07/02 11:14:07;;;;;;;;;0.00;0.00;;;;;24.77;32.04;101727.28;6310457;22;45325;-95
2022/07/02 11:16:45;;;;;;;;;0.00;0.00;;;;;24.86;30.51;101731.94;6337853;22;45258;-94
2022/07/02 11:19:19;;;;;;;;;0.00;0.00;;;;;24.89;31.71;101710.41;6337466;22;47149;-91
2022/07/02 11:21:49;;;;;;;;;2.00;0.75;;;;;25.09;30.42;101724.91;6338528;22;45654;-93
2022/07/02 11:24:37;;;;;;;;;4.75;1.25;;;;;25.25;29.83;101719.28;6284176;22;45379;-91
2022/07/02 11:27:02;;;;;;;;;1.00;1.00;;;;;25.40;30.31;101716.44;6309405;22;45321;-87